createdAt,value
2017-03-14T00:00:02.387Z,23.53
2017-03-14T00:01:05.682Z,24.65
2017-03-14T00:02:09.110Z,23.57
2017-03-14T00:03:12.376Z,23.60
2017-03-14T00:04:15.669Z,22.52
2017-03-14T00:05:19.067Z,22.60
2017-03-14T00:06:21.589Z,23.10
2017-03-14T00:07:27.806Z,22.73
2017-03-14T00:08:31.090Z,23.32
2017-03-14T00:09:34.353Z,23.95
2017-03-14T00:10:37.619Z,24.27
2017-03-14T00:11:40.995Z,24.60
2017-03-14T00:12:43.474Z,22.73
2017-03-14T00:13:47.534Z,23.25
2017-03-14T00:14:50.857Z,22.05
2017-03-14T00:15:54.249Z,23.73
2017-03-14T00:16:56.777Z,23.00
2017-03-14T00:17:59.889Z,23.70
2017-03-14T00:19:03.269Z,23.50
2017-03-14T00:20:06.489Z,22.48
2017-03-14T00:21:08.961Z,23.65
2017-03-14T00:22:12.101Z,22.73
2017-03-14T00:23:14.609Z,23.85
2017-03-14T00:24:16.965Z,22.32
2017-03-14T00:25:20.862Z,23.77
2017-03-14T00:26:23.394Z,22.82
2017-03-14T00:27:26.561Z,22.78
2017-03-14T00:28:29.010Z,21.65
2017-03-14T00:29:32.190Z,23.13
2017-03-14T00:30:34.791Z,23.80
2017-03-14T00:31:38.073Z,21.20
2017-03-14T00:32:41.397Z,22.45
2017-03-14T00:33:44.645Z,22.08
2017-03-14T00:34:47.970Z,22.60
2017-03-14T00:35:50.616Z,22.57
2017-03-14T00:36:54.598Z,22.30
2017-03-14T00:37:57.097Z,21.10
2017-03-14T00:39:00.348Z,21.13
2017-03-14T00:40:03.470Z,20.83
2017-03-14T00:41:06.835Z,20.40
2017-03-14T00:42:09.381Z,21.93
2017-03-14T00:43:13.378Z,20.45
2017-03-14T00:44:16.669Z,20.28
2017-03-14T00:45:19.265Z,21.03
2017-03-14T00:46:23.339Z,20.70
2017-03-14T00:47:25.791Z,19.82
2017-03-14T00:48:29.115Z,20.67
2017-03-14T00:49:32.430Z,21.82
2017-03-14T00:50:37.429Z,18.67
2017-03-14T00:51:40.665Z,19.65
2017-03-14T00:52:43.145Z,19.82
2017-03-14T00:53:46.344Z,19.55
2017-03-14T00:54:49.490Z,19.62
2017-03-14T00:55:52.717Z,19.93
2017-03-14T00:56:56.671Z,18.65
2017-03-14T00:57:59.965Z,19.60
2017-03-14T00:59:03.357Z,20.82
2017-03-14T01:00:06.733Z,23.32
2017-03-14T01:01:10.086Z,21.78
2017-03-14T01:02:13.302Z,23.28
2017-03-14T01:03:16.570Z,22.07
2017-03-14T01:04:19.970Z,21.15
2017-03-14T01:05:22.550Z,20.38
2017-03-14T01:06:25.001Z,23.62
2017-03-14T01:07:28.909Z,22.08
2017-03-14T01:08:31.514Z,22.47
2017-03-14T01:09:35.574Z,21.50
2017-03-14T01:10:38.129Z,22.98
2017-03-14T01:11:40.479Z,23.40
2017-03-14T01:12:43.588Z,22.98
2017-03-14T01:13:47.577Z,21.88
2017-03-14T01:14:50.972Z,22.02
2017-03-14T01:15:54.349Z,22.53
2017-03-14T01:16:57.670Z,23.30
2017-03-14T01:18:00.125Z,23.58
2017-03-14T01:19:04.208Z,23.05
2017-03-14T01:20:06.637Z,24.20
2017-03-14T01:21:09.033Z,22.57
2017-03-14T01:22:12.240Z,22.38
2017-03-14T01:23:16.221Z,21.00
2017-03-14T01:24:19.570Z,21.37
2017-03-14T01:25:23.083Z,22.28
2017-03-14T01:26:26.380Z,22.43
2017-03-14T01:27:29.030Z,22.68
2017-03-14T01:28:32.257Z,21.90
2017-03-14T01:29:35.507Z,22.77
2017-03-14T01:30:37.850Z,20.28
2017-03-14T01:31:40.218Z,21.10
2017-03-14T01:32:44.261Z,22.10
2017-03-14T01:33:46.886Z,22.30
2017-03-14T01:34:50.162Z,22.50
2017-03-14T01:35:54.166Z,21.17
2017-03-14T01:36:57.560Z,22.42
2017-03-14T01:38:00.239Z,21.45
2017-03-14T01:39:03.496Z,23.87
2017-03-14T01:40:06.642Z,21.30
2017-03-14T01:41:09.701Z,22.40
2017-03-14T01:42:13.048Z,21.65
2017-03-14T01:43:16.288Z,21.00
2017-03-14T01:44:19.639Z,21.98
2017-03-14T01:45:22.073Z,22.87
2017-03-14T01:46:26.109Z,22.20
2017-03-14T01:47:29.386Z,22.17
2017-03-14T01:48:31.997Z,22.65
2017-03-14T01:49:35.975Z,22.30
2017-03-14T01:50:38.453Z,22.57
2017-03-14T01:51:41.672Z,23.13
2017-03-14T01:52:44.942Z,22.42
2017-03-14T01:53:48.057Z,22.23
2017-03-14T01:54:50.564Z,23.03
2017-03-14T01:55:53.734Z,23.25
2017-03-14T01:56:56.945Z,22.05
2017-03-14T01:58:00.142Z,21.48
2017-03-14T01:59:04.197Z,22.95
2017-03-14T02:00:07.381Z,22.60
2017-03-14T02:01:09.811Z,22.93
2017-03-14T02:02:12.967Z,22.07
2017-03-14T02:03:16.191Z,22.57
2017-03-14T02:04:19.598Z,22.90
2017-03-14T02:05:22.070Z,21.90
2017-03-14T02:06:26.129Z,22.93
2017-03-14T02:07:28.639Z,22.97
2017-03-14T02:08:31.873Z,22.82
2017-03-14T02:09:34.361Z,22.17
2017-03-14T02:10:37.549Z,22.70
2017-03-14T02:11:40.642Z,23.55
2017-03-14T02:12:43.882Z,22.03
2017-03-14T02:13:46.330Z,21.20
2017-03-14T02:14:49.481Z,21.77
2017-03-14T02:15:53.540Z,21.33
2017-03-14T02:16:56.916Z,22.48
2017-03-14T02:17:59.366Z,23.87
2017-03-14T02:19:02.542Z,28.88
2017-03-14T02:20:06.690Z,29.73
2017-03-14T02:21:09.874Z,25.00
2017-03-14T02:22:13.122Z,22.90
2017-03-14T02:23:15.673Z,22.68
2017-03-14T02:24:19.709Z,20.85
2017-03-14T02:25:22.321Z,25.02
2017-03-14T02:26:25.539Z,27.62
2017-03-14T02:27:27.850Z,38.52
2017-03-14T02:28:30.994Z,28.33
2017-03-14T02:29:33.420Z,27.47
2017-03-14T02:30:36.791Z,29.07
2017-03-14T02:31:40.833Z,27.97
2017-03-14T02:32:44.126Z,26.30
2017-03-14T02:33:46.685Z,23.25
2017-03-14T02:34:49.765Z,21.93
2017-03-14T02:35:53.136Z,22.90
2017-03-14T02:36:56.438Z,22.50
2017-03-14T02:37:59.835Z,22.10
2017-03-14T02:39:02.362Z,21.17
2017-03-14T02:40:05.484Z,22.03
2017-03-14T02:41:08.836Z,22.38
2017-03-14T02:42:12.137Z,22.15
2017-03-14T02:43:14.752Z,23.87
2017-03-14T02:44:18.810Z,21.50
2017-03-14T02:45:21.289Z,23.20
2017-03-14T02:46:25.337Z,22.30
2017-03-14T02:47:28.549Z,21.02
2017-03-14T02:48:31.942Z,22.07
2017-03-14T02:49:35.235Z,21.03
2017-03-14T02:50:38.609Z,20.50
2017-03-14T02:51:43.187Z,20.20
2017-03-14T02:52:46.406Z,20.85
2017-03-14T02:53:49.792Z,22.42
2017-03-14T02:54:52.373Z,21.02
2017-03-14T02:55:56.461Z,21.93
2017-03-14T02:56:59.799Z,22.15
2017-03-14T02:58:03.103Z,22.27
2017-03-14T02:59:06.531Z,21.43
2017-03-14T03:00:09.054Z,21.77
2017-03-14T03:01:13.093Z,21.57
2017-03-14T03:02:16.514Z,21.10
2017-03-14T03:03:19.020Z,20.82
2017-03-14T03:04:22.297Z,20.70
2017-03-14T03:05:26.327Z,20.50
2017-03-14T03:06:28.885Z,19.87
2017-03-14T03:07:31.269Z,21.55
2017-03-14T03:08:35.365Z,20.60
2017-03-14T03:09:38.706Z,21.07
2017-03-14T03:10:42.133Z,21.53
2017-03-14T03:11:44.766Z,21.42
2017-03-14T03:12:48.133Z,22.15
2017-03-14T03:13:51.221Z,21.32
2017-03-14T03:14:53.796Z,23.03
2017-03-14T03:15:57.738Z,22.12
2017-03-14T03:17:00.291Z,20.67
2017-03-14T03:18:04.339Z,22.55
2017-03-14T03:19:07.574Z,21.65
2017-03-14T03:20:10.970Z,21.17
2017-03-14T03:21:13.497Z,21.45
2017-03-14T03:22:15.871Z,22.07
2017-03-14T03:23:19.257Z,21.25
2017-03-14T03:24:22.538Z,20.90
2017-03-14T03:25:25.682Z,22.38
2017-03-14T03:26:28.878Z,22.57
2017-03-14T03:27:32.278Z,22.18
2017-03-14T03:28:36.353Z,21.77
2017-03-14T03:29:38.818Z,21.45
2017-03-14T03:30:42.873Z,21.73
2017-03-14T03:31:46.326Z,20.75
2017-03-14T03:32:49.645Z,20.68
2017-03-14T03:33:53.007Z,20.48
2017-03-14T03:34:56.418Z,21.70
2017-03-14T03:35:59.013Z,20.28
2017-03-14T03:37:01.389Z,22.50
2017-03-14T03:38:05.376Z,22.82
2017-03-14T03:39:07.911Z,20.15
2017-03-14T03:40:11.078Z,21.20
2017-03-14T03:41:15.089Z,20.98
2017-03-14T03:42:18.484Z,22.07
2017-03-14T03:43:21.162Z,21.32
2017-03-14T03:44:24.445Z,22.67
2017-03-14T03:45:27.722Z,21.62
2017-03-14T03:46:30.150Z,19.98
2017-03-14T03:47:33.530Z,20.82
2017-03-14T03:48:36.841Z,20.28
2017-03-14T03:49:41.065Z,20.98
2017-03-14T03:50:44.282Z,18.82
2017-03-14T03:51:46.880Z,20.88
2017-03-14T03:52:50.130Z,20.15
2017-03-14T03:53:54.117Z,19.25
2017-03-14T03:54:56.713Z,20.20
2017-03-14T03:56:00.760Z,20.22
2017-03-14T03:57:03.383Z,21.50
2017-03-14T03:58:05.930Z,20.53
2017-03-14T03:59:09.178Z,21.22
2017-03-14T04:00:13.224Z,20.28
2017-03-14T04:01:15.697Z,20.83
2017-03-14T04:02:18.930Z,19.23
2017-03-14T04:03:21.399Z,19.63
2017-03-14T04:04:24.634Z,19.73
2017-03-14T04:05:27.109Z,20.08
2017-03-14T04:06:31.142Z,20.23
2017-03-14T04:07:33.749Z,21.22
2017-03-14T04:08:37.050Z,19.47
2017-03-14T04:09:41.137Z,20.70
2017-03-14T04:10:44.537Z,21.32
2017-03-14T04:11:47.869Z,21.80
2017-03-14T04:12:51.089Z,20.27
2017-03-14T04:13:53.569Z,21.98
2017-03-14T04:14:56.037Z,20.52
2017-03-14T04:16:00.085Z,20.95
2017-03-14T04:17:03.303Z,19.98
2017-03-14T04:18:06.634Z,20.52
2017-03-14T04:19:09.374Z,21.95
2017-03-14T04:20:12.538Z,21.55
2017-03-14T04:21:17.150Z,20.88
2017-03-14T04:22:19.561Z,20.07
2017-03-14T04:23:22.739Z,20.10
2017-03-14T04:24:26.621Z,21.25
2017-03-14T04:25:29.133Z,19.28
2017-03-14T04:26:33.153Z,19.72
2017-03-14T04:27:35.637Z,21.63
2017-03-14T04:28:39.682Z,21.25
2017-03-14T04:29:42.978Z,20.30
2017-03-14T04:30:45.601Z,20.58
2017-03-14T04:31:48.872Z,21.70
2017-03-14T04:32:51.477Z,21.30
2017-03-14T04:33:54.642Z,20.97
2017-03-14T04:34:58.689Z,19.48
2017-03-14T04:36:01.265Z,21.42
2017-03-14T04:37:03.614Z,21.08
2017-03-14T04:38:06.957Z,20.82
2017-03-14T04:39:10.065Z,20.08
2017-03-14T04:40:13.394Z,19.55
2017-03-14T04:41:15.814Z,20.95
2017-03-14T04:42:18.257Z,20.82
2017-03-14T04:43:22.173Z,21.45
2017-03-14T04:44:24.706Z,20.75
2017-03-14T04:45:27.826Z,20.62
2017-03-14T04:46:30.317Z,20.83
2017-03-14T04:47:33.413Z,20.57
2017-03-14T04:48:36.857Z,21.15
2017-03-14T04:49:39.385Z,22.50
2017-03-14T04:50:42.497Z,22.78
2017-03-14T04:51:45.794Z,21.18
2017-03-14T04:52:49.161Z,21.52
2017-03-14T04:53:51.789Z,20.72
2017-03-14T04:54:55.869Z,21.12
2017-03-14T04:55:59.144Z,21.62
2017-03-14T04:57:02.405Z,19.63
2017-03-14T04:58:05.035Z,22.10
2017-03-14T04:59:08.281Z,21.60
2017-03-14T05:00:10.666Z,20.15
2017-03-14T05:01:13.806Z,21.52
2017-03-14T05:02:17.109Z,21.87
2017-03-14T05:03:20.520Z,23.28
2017-03-14T05:04:22.959Z,21.93
2017-03-14T05:05:25.269Z,24.63
2017-03-14T05:06:29.290Z,23.30
2017-03-14T05:07:31.841Z,22.55
2017-03-14T05:08:35.905Z,21.42
2017-03-14T05:09:38.429Z,21.33
2017-03-14T05:10:41.710Z,20.78
2017-03-14T05:11:45.621Z,22.42
2017-03-14T05:12:48.224Z,19.90
2017-03-14T05:13:52.333Z,20.33
2017-03-14T05:14:54.886Z,19.65
2017-03-14T05:15:58.848Z,20.17
2017-03-14T05:17:01.281Z,21.15
2017-03-14T05:18:05.319Z,21.45
2017-03-14T05:19:08.655Z,23.18
2017-03-14T05:20:11.862Z,23.60
2017-03-14T05:21:14.320Z,20.62
2017-03-14T05:22:18.322Z,22.95
2017-03-14T05:23:20.905Z,21.28
2017-03-14T05:24:24.029Z,21.35
2017-03-14T05:25:26.601Z,21.30
2017-03-14T05:26:29.869Z,21.35
2017-03-14T05:27:33.958Z,21.55
2017-03-14T05:28:36.485Z,21.57
2017-03-14T05:29:40.555Z,22.03
2017-03-14T05:30:43.799Z,20.75
2017-03-14T05:31:46.345Z,21.75
2017-03-14T05:32:48.717Z,22.45
2017-03-14T05:33:52.729Z,20.88
2017-03-14T05:34:55.213Z,22.73
2017-03-14T05:35:57.533Z,22.55
2017-03-14T05:37:01.584Z,21.90
2017-03-14T05:38:04.840Z,22.23
2017-03-14T05:39:07.297Z,23.08
2017-03-14T05:40:11.444Z,21.07
2017-03-14T05:41:13.956Z,22.25
2017-03-14T05:42:17.204Z,20.55
2017-03-14T05:43:20.399Z,20.83
2017-03-14T05:44:23.673Z,20.42
2017-03-14T05:45:27.754Z,22.35
2017-03-14T05:46:30.165Z,21.75
2017-03-14T05:47:33.440Z,20.18
2017-03-14T05:48:36.702Z,20.62
2017-03-14T05:49:39.913Z,20.55
2017-03-14T05:50:43.253Z,19.98
2017-03-14T05:51:46.489Z,20.48
2017-03-14T05:52:49.886Z,21.65
2017-03-14T05:53:52.564Z,20.95
2017-03-14T05:54:54.885Z,19.97
2017-03-14T05:55:58.323Z,19.72
2017-03-14T05:57:01.506Z,20.03
2017-03-14T05:58:04.661Z,18.95
2017-03-14T05:59:07.937Z,19.43
2017-03-14T06:00:11.229Z,19.40
2017-03-14T06:01:13.849Z,18.35
2017-03-14T06:02:16.927Z,19.82
2017-03-14T06:03:20.981Z,19.02
2017-03-14T06:04:24.637Z,18.35
2017-03-14T06:05:27.191Z,18.27
2017-03-14T06:06:30.419Z,19.53
2017-03-14T06:07:33.699Z,18.70
2017-03-14T06:08:36.308Z,19.18
2017-03-14T06:09:39.451Z,18.55
2017-03-14T06:10:42.546Z,18.52
2017-03-14T06:11:45.209Z,20.20
2017-03-14T06:12:48.382Z,17.68
2017-03-14T06:13:51.677Z,18.52
2017-03-14T06:14:54.301Z,18.43
2017-03-14T06:15:57.423Z,18.93
2017-03-14T06:17:00.033Z,20.30
2017-03-14T06:18:03.077Z,19.53
2017-03-14T06:19:05.489Z,19.77
2017-03-14T06:20:08.833Z,19.62
2017-03-14T06:21:11.983Z,19.53
2017-03-14T06:22:17.157Z,18.03
2017-03-14T06:23:19.619Z,19.67
2017-03-14T06:24:22.860Z,17.85
2017-03-14T06:25:25.317Z,18.40
2017-03-14T06:26:28.533Z,19.92
2017-03-14T06:27:31.654Z,18.60
2017-03-14T06:28:35.068Z,18.77
2017-03-14T06:29:38.466Z,19.02
2017-03-14T06:30:41.845Z,19.12
2017-03-14T06:31:44.299Z,18.20
2017-03-14T06:32:47.581Z,18.73
2017-03-14T06:33:51.598Z,18.78
2017-03-14T06:34:54.281Z,18.03
2017-03-14T06:35:57.341Z,19.62
2017-03-14T06:37:00.741Z,18.58
2017-03-14T06:38:03.327Z,17.80
2017-03-14T06:39:06.405Z,20.73
2017-03-14T06:40:09.650Z,19.43
2017-03-14T06:41:13.045Z,19.68
2017-03-14T06:42:15.601Z,19.87
2017-03-14T06:43:19.653Z,19.92
2017-03-14T06:44:22.073Z,19.37
2017-03-14T06:45:25.161Z,19.17
2017-03-14T06:46:28.433Z,19.43
2017-03-14T06:47:31.622Z,17.95
2017-03-14T06:48:34.210Z,18.05
2017-03-14T06:49:38.294Z,18.63
2017-03-14T06:50:40.794Z,19.25
2017-03-14T06:51:43.940Z,18.10
2017-03-14T06:52:47.233Z,19.40
2017-03-14T06:53:50.740Z,18.77
2017-03-14T06:54:53.277Z,18.63
2017-03-14T06:55:57.361Z,18.45
2017-03-14T06:57:00.765Z,19.25
2017-03-14T06:58:03.337Z,18.13
2017-03-14T06:59:06.638Z,19.78
2017-03-14T07:00:10.602Z,17.92
2017-03-14T07:01:13.897Z,21.72
2017-03-14T07:02:17.289Z,22.00
2017-03-14T07:03:20.765Z,26.07
2017-03-14T07:04:24.068Z,23.62
2017-03-14T07:05:26.545Z,21.20
2017-03-14T07:06:29.834Z,18.97
2017-03-14T07:07:33.796Z,17.77
2017-03-14T07:08:36.361Z,18.55
2017-03-14T07:09:40.401Z,17.63
2017-03-14T07:10:42.917Z,17.37
2017-03-14T07:11:46.089Z,18.82
2017-03-14T07:12:50.125Z,18.00
2017-03-14T07:13:53.496Z,18.48
2017-03-14T07:14:56.122Z,18.00
2017-03-14T07:16:00.065Z,18.72
2017-03-14T07:17:02.519Z,17.85
2017-03-14T07:18:06.638Z,19.50
2017-03-14T07:19:10.026Z,18.68
2017-03-14T07:20:14.538Z,20.23
2017-03-14T07:21:17.831Z,19.53
2017-03-14T07:22:21.229Z,19.87
2017-03-14T07:23:23.921Z,18.78
2017-03-14T07:24:26.245Z,19.37
2017-03-14T07:25:28.669Z,18.37
2017-03-14T07:26:31.966Z,19.88
2017-03-14T07:27:35.998Z,17.88
2017-03-14T07:28:38.426Z,19.02
2017-03-14T07:29:40.802Z,19.67
2017-03-14T07:30:43.207Z,19.30
2017-03-14T07:31:46.445Z,18.93
2017-03-14T07:32:50.486Z,19.42
2017-03-14T07:33:53.858Z,18.90
2017-03-14T07:34:56.359Z,18.90
2017-03-14T07:35:59.693Z,19.15
2017-03-14T07:37:02.853Z,17.77
2017-03-14T07:38:06.046Z,20.78
2017-03-14T07:39:10.058Z,19.33
2017-03-14T07:40:13.449Z,19.43
2017-03-14T07:41:15.947Z,20.43
2017-03-14T07:42:19.918Z,20.92
2017-03-14T07:43:23.115Z,20.57
2017-03-14T07:44:25.669Z,19.10
2017-03-14T07:45:29.653Z,20.37
2017-03-14T07:46:33.074Z,20.12
2017-03-14T07:47:35.486Z,19.72
2017-03-14T07:48:39.520Z,18.80
2017-03-14T07:49:41.969Z,19.98
2017-03-14T07:50:45.174Z,19.57
2017-03-14T07:51:48.378Z,19.25
2017-03-14T07:52:51.643Z,19.27
2017-03-14T07:53:55.577Z,20.45
2017-03-14T07:54:58.240Z,21.07
2017-03-14T07:56:01.398Z,22.17
2017-03-14T07:57:04.664Z,25.50
2017-03-14T07:58:07.221Z,24.67
2017-03-14T07:59:10.644Z,23.55
2017-03-14T08:00:14.705Z,23.55
2017-03-14T08:01:17.157Z,23.70
2017-03-14T08:02:21.306Z,23.07
2017-03-14T08:03:23.750Z,23.42
2017-03-14T08:04:26.942Z,20.98
2017-03-14T08:05:29.495Z,20.38
2017-03-14T08:06:32.773Z,22.57
2017-03-14T08:07:35.311Z,20.13
2017-03-14T08:08:39.302Z,22.02
2017-03-14T08:09:42.678Z,22.65
2017-03-14T08:10:45.125Z,22.85
2017-03-14T08:11:47.437Z,24.37
2017-03-14T08:12:49.833Z,23.60
2017-03-14T08:13:53.113Z,24.27
2017-03-14T08:14:56.401Z,25.65
2017-03-14T08:15:59.557Z,25.02
2017-03-14T08:17:02.222Z,26.05
2017-03-14T08:18:05.601Z,24.90
2017-03-14T08:19:09.506Z,25.33
2017-03-14T08:20:12.059Z,25.05
2017-03-14T08:21:16.072Z,23.53
2017-03-14T08:22:19.388Z,22.87
2017-03-14T08:23:22.034Z,23.88
2017-03-14T08:24:25.908Z,24.27
2017-03-14T08:25:29.305Z,24.78
2017-03-14T08:26:32.712Z,25.08
2017-03-14T08:27:36.093Z,24.55
2017-03-14T08:28:40.524Z,23.02
2017-03-14T08:29:44.861Z,23.18
2017-03-14T08:30:49.180Z,22.58
2017-03-14T08:31:53.477Z,24.48
2017-03-14T08:32:57.747Z,24.05
2017-03-14T08:34:02.105Z,23.65
2017-03-14T08:35:06.364Z,23.03
2017-03-14T08:36:10.684Z,22.65
2017-03-14T08:37:15.010Z,22.70
2017-03-14T08:38:19.353Z,23.63
2017-03-14T08:39:23.629Z,22.98
2017-03-14T08:40:27.979Z,22.08
2017-03-14T08:41:32.251Z,20.05
2017-03-14T08:42:36.521Z,20.22
2017-03-14T08:43:40.836Z,19.63
2017-03-14T08:44:45.004Z,20.30
2017-03-14T08:45:49.355Z,20.32
2017-03-14T08:46:53.653Z,20.93
2017-03-14T08:47:57.960Z,21.48
2017-03-14T08:49:02.263Z,22.43
2017-03-14T08:50:06.500Z,21.75
2017-03-14T08:51:10.760Z,23.00
2017-03-14T08:52:15.042Z,22.08
2017-03-14T08:53:19.429Z,22.30
2017-03-14T08:54:23.725Z,21.72
2017-03-14T08:55:28.105Z,22.17
2017-03-14T08:56:32.339Z,22.12
2017-03-14T08:57:36.555Z,21.75
2017-03-14T08:58:40.758Z,22.70
2017-03-14T08:59:44.948Z,24.58
2017-03-14T09:00:49.200Z,23.98
2017-03-14T09:01:53.368Z,23.80
2017-03-14T09:02:57.597Z,26.42
2017-03-14T09:04:01.801Z,26.67
2017-03-14T09:06:08.385Z,37.02
2017-03-14T09:07:12.961Z,36.78
2017-03-14T09:11:20.312Z,27.78
2017-03-14T09:12:23.285Z,28.03
2017-03-14T09:14:14.501Z,26.80
2017-03-14T09:15:18.418Z,28.03
2017-03-14T09:16:20.923Z,25.70
2017-03-14T09:17:23.215Z,26.73
2017-03-14T09:18:26.299Z,29.48
2017-03-14T09:35:34.564Z,33.30
2017-03-14T09:36:39.588Z,32.33
2017-03-14T09:37:43.881Z,30.48
2017-03-14T09:38:48.079Z,32.67
2017-03-14T09:39:52.377Z,33.60
2017-03-14T09:40:56.813Z,32.32
2017-03-14T09:42:01.144Z,33.65
2017-03-14T09:43:05.407Z,34.87
2017-03-14T09:44:09.872Z,33.77
2017-03-14T09:45:14.232Z,32.98
2017-03-14T09:46:18.648Z,33.30
2017-03-14T09:47:22.996Z,31.37
2017-03-14T09:48:27.369Z,32.92
2017-03-14T09:49:31.788Z,33.15
2017-03-14T09:50:36.182Z,30.90
2017-03-14T10:36:18.088Z,27.88
2017-03-14T10:38:21.693Z,25.50
2017-03-14T10:39:28.212Z,26.00
2017-03-14T10:40:33.211Z,25.48
2017-03-14T10:41:39.404Z,26.77
2017-03-14T10:42:44.427Z,24.72
2017-03-14T10:43:49.856Z,26.27
2017-03-14T10:44:55.784Z,26.50
2017-03-14T10:46:02.036Z,26.13
2017-03-14T10:47:07.216Z,25.05
2017-03-14T10:48:12.800Z,23.57
2017-03-14T10:49:17.458Z,24.98
2017-03-14T10:50:23.957Z,24.13
2017-03-14T10:51:28.749Z,22.75
2017-03-14T10:52:33.429Z,24.15
2017-03-14T10:53:38.993Z,23.87
2017-03-14T10:54:44.558Z,23.87
2017-03-14T10:55:49.504Z,21.30
2017-03-14T10:56:55.201Z,21.92
2017-03-14T10:57:59.942Z,22.80
2017-03-14T10:59:05.564Z,24.33
2017-03-14T11:00:11.636Z,23.87
2017-03-14T11:01:17.753Z,22.18
2017-03-14T11:02:22.529Z,21.48
2017-03-14T11:03:28.784Z,21.65
2017-03-14T11:04:34.444Z,20.18
2017-03-14T11:05:39.397Z,16.40
2017-03-14T11:06:44.181Z,16.53
2017-03-14T11:07:50.651Z,15.07
2017-03-14T11:08:56.356Z,16.48
2017-03-14T11:10:01.330Z,16.68
2017-03-14T11:11:06.265Z,18.67
2017-03-14T11:12:11.009Z,18.08
2017-03-14T11:13:18.773Z,18.67
2017-03-14T11:14:24.190Z,18.80
2017-03-14T11:15:29.592Z,20.82
2017-03-14T11:16:35.105Z,22.07
2017-03-14T11:17:40.837Z,22.50
2017-03-14T11:18:45.591Z,19.30
2017-03-14T11:19:51.809Z,17.63
2017-03-14T11:20:57.492Z,15.55
2017-03-14T11:22:03.232Z,16.42
2017-03-14T11:23:08.889Z,15.58
2017-03-14T11:24:13.759Z,12.92
2017-03-14T11:25:18.581Z,13.92
2017-03-14T11:26:24.172Z,15.60
2017-03-14T11:27:29.693Z,15.77
2017-03-14T11:28:34.596Z,15.57
2017-03-14T11:29:39.420Z,16.02
2017-03-14T11:30:44.852Z,16.37
2017-03-14T11:31:50.392Z,15.78
2017-03-14T11:32:55.129Z,17.65
2017-03-14T11:34:00.585Z,14.52
2017-03-14T11:35:05.482Z,13.35
2017-03-14T11:36:11.022Z,12.78
2017-03-14T11:37:16.548Z,12.20
2017-03-14T11:38:21.524Z,12.38
2017-03-14T11:39:27.089Z,16.23
2017-03-14T11:40:31.784Z,15.62
2017-03-14T11:41:38.004Z,14.87
2017-03-14T11:42:42.860Z,16.70
2017-03-14T11:43:48.304Z,17.47
2017-03-14T11:44:53.161Z,17.85
2017-03-14T11:45:57.888Z,13.63
2017-03-14T11:47:04.252Z,13.48
2017-03-14T11:48:09.856Z,13.30
2017-03-14T11:49:14.677Z,13.52
2017-03-14T11:50:20.099Z,13.35
2017-03-14T11:51:25.920Z,12.93
2017-03-14T11:52:31.352Z,12.58
2017-03-14T11:53:37.226Z,14.40
2017-03-14T11:54:42.869Z,13.50
2017-03-14T11:55:47.672Z,12.88
2017-03-14T11:56:52.461Z,10.40
2017-03-14T11:57:57.962Z,11.70
2017-03-14T11:59:02.704Z,12.87
2017-03-14T12:00:08.297Z,13.12
2017-03-14T12:01:13.143Z,12.22
2017-03-14T12:02:18.724Z,11.52
2017-03-14T12:03:23.465Z,12.92
2017-03-14T12:04:29.016Z,11.58
2017-03-14T12:05:35.272Z,12.47
2017-03-14T12:06:43.660Z,12.95
2017-03-14T12:07:49.118Z,13.50
2017-03-14T12:08:54.744Z,12.78
2017-03-14T12:09:59.541Z,21.30
2017-03-14T12:11:05.829Z,13.17
2017-03-14T12:12:10.646Z,11.32
2017-03-14T12:13:15.361Z,11.77
2017-03-14T12:14:20.836Z,12.80
2017-03-14T12:15:25.616Z,12.42
2017-03-14T12:16:31.124Z,12.75
2017-03-14T12:17:37.563Z,13.33
2017-03-14T12:18:42.803Z,11.93
2017-03-14T12:19:49.184Z,12.98
2017-03-14T12:20:54.716Z,12.40
2017-03-14T12:22:00.272Z,13.17
2017-03-14T12:23:05.897Z,12.20
2017-03-14T12:24:10.684Z,11.75
2017-03-14T12:25:15.453Z,11.38
2017-03-14T12:26:20.911Z,13.07
2017-03-14T12:27:26.494Z,13.08
2017-03-14T12:28:32.123Z,14.28
2017-03-14T12:29:37.684Z,17.78
2017-03-14T12:30:43.104Z,14.15
2017-03-14T12:31:48.744Z,15.58
2017-03-14T12:32:54.386Z,12.82
2017-03-14T12:34:00.056Z,15.68
2017-03-14T12:35:05.714Z,17.15
2017-03-14T12:36:11.229Z,13.70
2017-03-14T12:37:15.958Z,16.68
2017-03-14T12:38:20.613Z,13.88
2017-03-14T12:39:25.317Z,14.55
2017-03-14T12:40:30.904Z,15.45
2017-03-14T12:41:35.645Z,15.57
2017-03-14T12:42:40.239Z,15.90
2017-03-14T12:43:46.684Z,15.83
2017-03-14T12:44:52.252Z,16.63
2017-03-14T12:45:57.140Z,16.50
2017-03-14T12:47:02.837Z,16.58
2017-03-14T12:48:09.104Z,17.73
2017-03-14T12:49:14.885Z,17.32
2017-03-14T12:50:20.597Z,17.55
2017-03-14T12:51:25.382Z,16.02
2017-03-14T12:52:30.917Z,15.62
2017-03-14T12:53:36.820Z,15.90
2017-03-14T12:54:41.581Z,16.05
2017-03-14T12:55:46.532Z,21.03
2017-03-14T12:56:51.289Z,15.20
2017-03-14T12:57:57.637Z,15.85
2017-03-14T12:59:03.216Z,16.45
2017-03-14T13:00:08.040Z,15.42
2017-03-14T13:01:12.676Z,15.70
2017-03-14T13:02:18.463Z,15.47
2017-03-14T13:03:23.088Z,18.80
2017-03-14T13:04:27.840Z,18.95
2017-03-14T13:05:33.407Z,18.03
2017-03-14T13:06:39.213Z,40.00
2017-03-14T13:07:44.767Z,17.30
2017-03-14T13:08:50.485Z,20.55
2017-03-14T13:09:55.142Z,18.85
2017-03-14T13:11:00.689Z,18.88
2017-03-14T13:12:06.223Z,20.10
2017-03-14T13:13:11.939Z,19.38
2017-03-14T13:14:17.393Z,20.18
2017-03-14T13:15:22.940Z,17.42
2017-03-14T13:16:28.680Z,18.10
2017-03-14T13:17:34.457Z,18.45
2017-03-14T13:18:39.376Z,20.03
2017-03-14T13:19:44.956Z,19.05
2017-03-14T13:20:50.696Z,18.57
2017-03-14T13:21:56.225Z,18.97
2017-03-14T13:23:01.725Z,20.02
2017-03-14T13:24:07.513Z,20.48
2017-03-14T13:25:13.090Z,19.00
2017-03-14T13:26:17.852Z,18.80
2017-03-14T13:27:23.424Z,18.52
2017-03-14T13:28:28.876Z,17.83
2017-03-14T13:29:34.444Z,18.47
2017-03-14T13:30:39.184Z,21.97
2017-03-14T13:31:45.493Z,19.87
2017-03-14T13:32:51.004Z,18.87
2017-03-14T13:33:56.668Z,36.68
2017-03-14T13:35:01.525Z,19.63
2017-03-14T13:36:07.010Z,17.22
2017-03-14T13:37:11.840Z,18.02
2017-03-14T13:38:16.512Z,18.95
2017-03-14T13:39:21.368Z,16.30
2017-03-14T13:40:26.133Z,18.68
2017-03-14T13:41:32.537Z,16.42
2017-03-14T13:42:41.417Z,17.22
2017-03-14T13:43:46.184Z,17.80
2017-03-14T13:44:52.523Z,16.67
2017-03-14T13:45:57.388Z,17.12
2017-03-14T13:47:02.768Z,17.45
2017-03-14T13:48:07.676Z,16.67
2017-03-14T13:49:14.049Z,17.33
2017-03-14T13:50:19.589Z,17.65
2017-03-14T13:51:25.278Z,16.57
2017-03-14T13:52:30.033Z,16.60
2017-03-14T13:53:35.480Z,15.93
2017-03-14T13:54:41.049Z,15.72
2017-03-14T13:55:45.919Z,14.97
2017-03-14T13:56:50.856Z,15.95
2017-03-14T13:57:55.612Z,15.85
2017-03-14T13:59:01.161Z,16.67
2017-03-14T14:00:06.639Z,15.68
2017-03-14T14:01:11.540Z,15.03
2017-03-14T14:02:16.329Z,15.17
2017-03-14T14:03:22.654Z,14.88
2017-03-14T14:04:28.396Z,13.68
2017-03-14T14:05:33.216Z,13.83
2017-03-14T14:06:37.928Z,15.15
2017-03-14T14:07:43.429Z,15.58
2017-03-14T14:08:48.217Z,15.42
2017-03-14T14:09:52.871Z,15.65
2017-03-14T14:10:59.345Z,15.00
2017-03-14T14:12:04.213Z,16.25
2017-03-14T14:13:09.791Z,16.73
2017-03-14T14:14:15.228Z,15.93
2017-03-14T14:15:20.008Z,15.45
2017-03-14T14:16:24.944Z,14.92
2017-03-14T14:17:30.444Z,14.43
2017-03-14T14:18:36.071Z,15.47
2017-03-14T14:19:42.329Z,15.38
2017-03-14T14:20:47.920Z,14.67
2017-03-14T14:21:52.672Z,16.30
2017-03-14T14:22:57.320Z,17.07
2017-03-14T14:24:04.665Z,18.77
2017-03-14T14:25:10.196Z,17.10
2017-03-14T14:26:15.081Z,17.22
2017-03-14T14:27:19.848Z,14.37
2017-03-14T14:28:25.453Z,16.20
2017-03-14T14:29:31.077Z,15.30
2017-03-14T14:30:36.512Z,17.62
2017-03-14T14:31:41.276Z,15.68
2017-03-14T14:32:46.781Z,15.28
2017-03-14T14:33:52.320Z,15.62
2017-03-14T14:34:57.812Z,15.17
2017-03-14T14:36:03.293Z,15.30
2017-03-14T14:37:08.955Z,15.43
2017-03-14T14:38:13.688Z,15.15
2017-03-14T14:39:18.460Z,12.78
2017-03-14T14:40:23.969Z,10.95
2017-03-14T14:41:29.658Z,11.48
2017-03-14T14:42:34.549Z,10.42
2017-03-14T14:43:40.917Z,12.03
2017-03-14T14:44:46.483Z,11.03
2017-03-14T14:45:52.215Z,9.97
2017-03-14T14:46:56.972Z,10.00
2017-03-14T14:48:02.572Z,9.68
2017-03-14T14:49:08.200Z,10.42